createdAt,value
2018-09-29T00:04:58.293Z,69.60
2018-09-29T00:10:01.497Z,70.10
2018-09-29T00:15:05.943Z,70.30
2018-09-29T00:20:09.695Z,70.60
2018-09-29T00:25:12.909Z,70.90
2018-09-29T00:30:15.990Z,71.20
2018-09-29T00:35:19.136Z,71.90
2018-09-29T00:40:22.280Z,72.60
2018-09-29T00:45:25.428Z,73.20
2018-09-29T00:50:28.604Z,73.60
2018-09-29T00:55:31.773Z,74.00
2018-09-29T01:00:34.927Z,74.00
2018-09-29T01:05:38.061Z,74.00
2018-09-29T01:10:41.180Z,74.10
2018-09-29T01:15:44.311Z,74.90
2018-09-29T01:20:47.551Z,74.40
2018-09-29T01:25:50.626Z,74.20
2018-09-29T01:30:53.795Z,73.80
2018-09-29T01:35:56.919Z,73.80
2018-09-29T01:41:00.066Z,73.80
2018-09-29T01:46:03.189Z,73.80
2018-09-29T01:51:06.471Z,73.80
2018-09-29T01:56:09.642Z,73.80
2018-09-29T02:01:12.718Z,73.90
2018-09-29T02:06:15.929Z,73.80
2018-09-29T02:11:19.028Z,73.70
2018-09-29T02:16:22.211Z,73.60
2018-09-29T02:21:25.389Z,73.90
2018-09-29T02:26:28.472Z,74.20
2018-09-29T02:31:31.636Z,74.20
2018-09-29T02:36:34.767Z,74.00
2018-09-29T02:41:38.033Z,74.10
2018-09-29T02:46:41.175Z,74.20
2018-09-29T02:51:44.261Z,74.40
2018-09-29T02:56:47.418Z,74.20
2018-09-29T03:01:50.596Z,74.10
2018-09-29T03:06:53.807Z,74.00
2018-09-29T03:11:56.906Z,73.70
2018-09-29T03:17:00.183Z,73.50
2018-09-29T03:22:03.349Z,73.50
2018-09-29T03:27:06.600Z,73.30
2018-09-29T03:32:09.843Z,73.30
2018-09-29T03:37:12.927Z,73.30
2018-09-29T03:42:16.054Z,73.30
2018-09-29T03:47:19.205Z,73.00
2018-09-29T03:52:22.403Z,73.00
2018-09-29T03:57:25.520Z,73.10
2018-09-29T04:02:28.676Z,73.60
2018-09-29T04:07:32.033Z,73.50
2018-09-29T04:12:35.172Z,73.50
2018-09-29T04:17:38.277Z,73.60
2018-09-29T04:22:41.436Z,73.70
2018-09-29T04:27:44.562Z,73.80
2018-09-29T04:32:47.688Z,74.00
2018-09-29T04:37:50.815Z,74.20
2018-09-29T04:42:53.949Z,74.30
2018-09-29T04:47:57.133Z,74.30
2018-09-29T04:53:00.241Z,74.20
2018-09-29T04:58:03.410Z,74.40
2018-09-29T05:03:06.669Z,74.50
2018-09-29T05:08:09.799Z,74.40
2018-09-29T05:13:12.931Z,74.60
2018-09-29T05:18:16.215Z,74.60
2018-09-29T05:23:19.397Z,74.50
2018-09-29T05:28:22.548Z,74.50
2018-09-29T05:33:25.673Z,74.90
2018-09-29T05:38:28.813Z,74.80
2018-09-29T05:43:31.911Z,74.70
2018-09-29T05:48:35.200Z,75.00
2018-09-29T05:53:38.316Z,74.70
2018-09-29T05:58:41.477Z,74.60
2018-09-29T06:03:44.539Z,74.20
2018-09-29T06:08:47.716Z,74.40
2018-09-29T06:13:50.939Z,74.10
2018-09-29T06:18:54.192Z,73.20
2018-09-29T06:23:57.389Z,71.00
2018-09-29T06:29:00.520Z,66.80
2018-09-29T06:34:03.737Z,62.00
2018-09-29T06:39:08.150Z,57.60
2018-09-29T06:44:11.421Z,53.70
2018-09-29T06:49:14.550Z,51.30
2018-09-29T06:54:17.714Z,50.50
2018-09-29T06:59:21.120Z,50.00
2018-09-29T07:04:24.249Z,49.60
2018-09-29T07:09:27.413Z,49.10
2018-09-29T07:14:30.565Z,48.00
2018-09-29T07:19:34.008Z,47.20
2018-09-29T07:24:37.140Z,46.10
2018-09-29T07:29:40.530Z,44.90
2018-09-29T07:34:43.695Z,42.30
2018-09-29T07:39:46.846Z,44.20
2018-09-29T07:44:49.965Z,45.60
2018-09-29T07:49:53.140Z,46.30
2018-09-29T07:54:56.412Z,45.40
2018-09-29T07:59:59.433Z,46.30
2018-09-29T08:05:02.611Z,47.30
2018-09-29T08:10:05.721Z,50.90
2018-09-29T08:15:08.873Z,53.70
2018-09-29T08:20:12.031Z,55.00
2018-09-29T08:25:15.182Z,55.80
2018-09-29T08:30:18.381Z,56.90
2018-09-29T08:35:21.545Z,56.10
2018-09-29T08:40:24.605Z,57.30
2018-09-29T08:45:27.771Z,57.20
2018-09-29T08:50:30.996Z,57.60
2018-09-29T08:55:34.127Z,58.40
2018-09-29T09:00:37.453Z,58.80
2018-09-29T09:05:40.605Z,58.70
2018-09-29T09:10:43.736Z,58.20
2018-09-29T09:15:46.876Z,58.20
2018-09-29T09:20:50.019Z,57.60
2018-09-29T09:25:53.244Z,57.70
2018-09-29T09:30:56.398Z,56.30
2018-09-29T09:35:59.567Z,55.20
2018-09-29T09:41:02.669Z,51.10
2018-09-29T09:46:05.845Z,48.80
2018-09-29T09:51:09.150Z,44.60
2018-09-29T09:56:12.475Z,41.20
2018-09-29T10:01:35.021Z,37.90
2018-09-29T10:06:38.149Z,35.50
2018-09-29T10:11:41.790Z,35.70
2018-09-29T10:16:44.949Z,34.20
2018-09-29T10:21:48.098Z,31.00
2018-09-29T10:26:51.437Z,31.40
2018-09-29T10:31:54.552Z,32.10
2018-09-29T10:36:57.725Z,31.10
2018-09-29T10:42:00.917Z,30.80
2018-09-29T10:47:04.086Z,30.00
2018-09-29T10:52:07.266Z,28.60
2018-09-29T10:57:10.371Z,29.60
2018-09-29T11:02:13.715Z,30.00
2018-09-29T11:07:17.099Z,29.60
2018-09-29T11:12:20.187Z,30.00
2018-09-29T11:17:23.347Z,30.30
2018-09-29T11:22:26.496Z,28.90
2018-09-29T11:27:29.613Z,27.10
2018-09-29T11:32:32.780Z,28.20
2018-09-29T11:37:36.001Z,27.50
2018-09-29T11:42:39.169Z,27.20
2018-09-29T11:47:42.278Z,25.40
2018-09-29T11:52:45.454Z,25.70
2018-09-29T11:57:48.625Z,25.80
2018-09-29T12:02:51.749Z,26.30
2018-09-29T12:07:54.929Z,27.10
2018-09-29T12:12:57.996Z,26.60
2018-09-29T12:18:01.150Z,27.40
2018-09-29T12:23:04.288Z,26.60
2018-09-29T12:28:07.435Z,25.90
2018-09-29T12:33:10.545Z,26.20
2018-09-29T12:38:13.659Z,25.90
2018-09-29T12:43:16.793Z,27.40
2018-09-29T12:48:20.000Z,27.20
2018-09-29T12:53:23.105Z,27.10
2018-09-29T12:58:26.209Z,27.60
2018-09-29T13:03:29.362Z,28.40
2018-09-29T13:08:32.509Z,28.50
2018-09-29T13:13:35.673Z,29.30
2018-09-29T13:18:38.830Z,29.40
2018-09-29T13:23:41.936Z,29.30
2018-09-29T13:28:45.153Z,29.70
2018-09-29T13:33:48.268Z,31.60
2018-09-29T13:38:51.389Z,32.40
2018-09-29T13:43:54.574Z,33.50
2018-09-29T13:48:57.764Z,34.20
2018-09-29T13:54:00.916Z,34.10
2018-09-29T13:59:04.900Z,34.80
2018-09-29T14:04:08.053Z,34.80
2018-09-29T14:09:11.381Z,35.30
2018-09-29T14:14:14.535Z,35.50
2018-09-29T14:19:17.604Z,34.60
2018-09-29T14:24:20.749Z,35.40
2018-09-29T14:29:23.877Z,35.70
2018-09-29T14:34:27.018Z,35.40
2018-09-29T14:39:30.260Z,35.60
2018-09-29T14:44:33.364Z,35.60
2018-09-29T14:49:36.482Z,35.50
2018-09-29T14:54:40.596Z,36.00
2018-09-29T14:59:43.744Z,35.70
2018-09-29T15:04:46.912Z,35.50
2018-09-29T15:09:50.038Z,36.10
2018-09-29T15:14:53.178Z,36.50
2018-09-29T15:19:56.333Z,36.30
2018-09-29T15:24:59.513Z,35.40
2018-09-29T15:30:02.695Z,36.30
2018-09-29T15:35:05.953Z,36.10
2018-09-29T15:40:09.082Z,36.50
2018-09-29T15:45:12.244Z,36.20
2018-09-29T15:50:15.426Z,35.60
2018-09-29T15:55:18.744Z,35.80
2018-09-29T16:00:21.780Z,35.90
2018-09-29T16:05:24.900Z,34.60
2018-09-29T16:10:28.088Z,34.10
2018-09-29T16:15:31.291Z,34.30
2018-09-29T16:20:34.395Z,34.30
2018-09-29T16:25:37.641Z,34.60
2018-09-29T16:30:40.799Z,35.10
2018-09-29T16:35:46.566Z,35.30
2018-09-29T16:40:49.731Z,35.80
2018-09-29T16:45:52.872Z,36.30
2018-09-29T16:50:56.042Z,36.90
2018-09-29T16:55:59.195Z,37.80
2018-09-29T17:01:02.348Z,37.80
2018-09-29T17:06:05.585Z,38.50
2018-09-29T17:11:08.765Z,39.20
2018-09-29T17:16:12.028Z,40.10
2018-09-29T17:21:15.305Z,40.70
2018-09-29T17:26:18.532Z,41.80
2018-09-29T17:31:21.647Z,42.70
2018-09-29T17:36:24.785Z,44.30
2018-09-29T17:41:27.949Z,45.70
2018-09-29T17:46:31.084Z,47.40
2018-09-29T17:51:34.227Z,49.10
2018-09-29T17:56:37.348Z,49.40
2018-09-29T18:01:40.546Z,50.20
2018-09-29T18:06:43.730Z,51.00
2018-09-29T18:11:46.896Z,51.80
2018-09-29T18:16:50.015Z,52.20
2018-09-29T18:21:53.183Z,52.70
2018-09-29T18:26:56.225Z,53.30
2018-09-29T18:31:59.379Z,54.00
2018-09-29T18:37:02.545Z,54.20
2018-09-29T18:42:05.715Z,55.10
2018-09-29T18:47:10.069Z,55.80
2018-09-29T18:52:13.232Z,56.60
2018-09-29T18:57:16.313Z,57.10
2018-09-29T19:02:19.470Z,57.50
2018-09-29T19:07:22.632Z,57.70
2018-09-29T19:12:25.774Z,57.60
2018-09-29T19:17:28.928Z,57.50
2018-09-29T19:22:32.193Z,56.10
2018-09-29T19:27:35.358Z,55.30
2018-09-29T19:32:38.555Z,55.30
2018-09-29T19:37:41.688Z,55.90
2018-09-29T19:42:44.850Z,58.40
2018-09-29T19:47:47.997Z,59.80
2018-09-29T19:52:51.154Z,60.00
2018-09-29T19:57:54.354Z,58.80
2018-09-29T20:02:57.562Z,58.90
2018-09-29T20:08:00.688Z,59.40
2018-09-29T20:13:03.817Z,61.10
2018-09-29T20:18:07.344Z,60.70
2018-09-29T20:23:10.541Z,59.90
2018-09-29T20:28:13.690Z,62.10
2018-09-29T20:33:16.859Z,64.00
2018-09-29T20:38:19.989Z,65.10
2018-09-29T20:43:23.297Z,64.00
2018-09-29T20:48:26.720Z,61.10
2018-09-29T20:53:29.890Z,60.40
2018-09-29T20:58:33.167Z,59.30
2018-09-29T21:03:36.331Z,58.60
2018-09-29T21:08:39.521Z,58.80
2018-09-29T21:13:42.757Z,58.40
2018-09-29T21:18:45.839Z,58.70
2018-09-29T21:23:48.994Z,58.80
2018-09-29T21:28:52.178Z,59.30
2018-09-29T21:33:55.335Z,59.70
2018-09-29T21:38:58.471Z,60.50
2018-09-29T21:44:01.640Z,60.70
2018-09-29T21:49:05.178Z,61.70
2018-09-29T21:54:08.313Z,61.90
2018-09-29T21:59:11.454Z,62.90
2018-09-29T22:04:14.646Z,64.00
2018-09-29T22:09:24.069Z,64.90
2018-09-29T22:14:27.237Z,65.70
2018-09-29T22:19:30.395Z,66.20
2018-09-29T22:24:33.772Z,67.00
2018-09-29T22:29:36.824Z,67.20
2018-09-29T22:34:39.924Z,67.20
2018-09-29T22:39:43.112Z,68.30
2018-09-29T22:44:46.229Z,69.10
2018-09-29T22:49:49.411Z,71.10
2018-09-29T22:54:52.801Z,71.80
2018-09-29T22:59:55.945Z,74.30
2018-09-29T23:04:59.150Z,73.90
2018-09-29T23:10:02.291Z,75.20
2018-09-29T23:15:05.496Z,76.80
2018-09-29T23:20:08.643Z,77.10
2018-09-29T23:25:11.747Z,76.80
2018-09-29T23:30:14.875Z,78.60
2018-09-29T23:35:18.054Z,78.80
2018-09-29T23:40:21.236Z,80.20
2018-09-29T23:45:24.337Z,78.50
2018-09-29T23:50:27.467Z,81.00
2018-09-29T23:55:30.608Z,80.90
